Eldorado, Oklahoma
Current Conditions -  °F | °C
As of 1:35 AM on Sunday 23 Nov 2014 (Local Time) from KAXS Reporting Station
Moderate Fog Moderate Fog  
Wind Chill: 52°   Ceiling: 100
Heat Index: 52°   Visibility: 0.25mi
Dew Point: 50°   Wind: 8mph
Humidity: 94%   Direction: 170°S
Pressure: 29.6"   Gusts: NA
Location:  34.47°N, 99.65°W
Report Text: KAXS 230735Z AUTO 17007KT 1/4SM FG OVC001 11/10 A2960 RMK AO2 T01110102
Loading
Personal Weather Stations






























Interactive Weather Map New forecast layout! Learn more

10-Day Weather Forecast

Advertisements
Track Severe Weather on mobile